Torreon, Mexico

6:41 AM CST on January 23, 2017 (GMT -0600)
ME8718 | | Change Station

Elev 3640 ft 25.59 °N, 103.40 °W | Updated 24 minutes ago

Scattered Clouds
Scattered Clouds
48.0 °F
Feels Like 48 °F
N
0.0
Wind Variable Wind from NNW

Today
High -- | Low -- °F
--% Chance of Precip.
Yesterday
High -- | Low -- °F
Precip. -- in
Pressure 30.16 in
Visibility 10.0 miles
Clouds Scattered Clouds 20000 ft
Windchill 48 °F
Dew Point 27 °F
Humidity 44%
Rainfall in
Snow Depth Not available.
7:40 AM 6:31 PM
Waning Crescent, 19% visible
METAR MMTC 231042Z 32006KT 10SM SCT200 12/M02 A3016 RMK 8/002 HZY RTS
Pressure 30.16 in
Visibility 10.0 miles
Clouds Scattered Clouds 20000 ft
Windchill 48 °F
Dew Point 27 °F
Humidity 44%
Rainfall in
Snow Depth Not available.
7:40 AM 6:31 PM
Waning Crescent, 19% visible
METAR MMTC 231042Z 32006KT 10SM SCT200 12/M02 A3016 RMK 8/002 HZY RTS

Get Your Daily Forecast Email!

Thanks for signing up!

Be on the lookout for a verification email in your inbox.

You'll start receiving the daily forecast at 8 AM.

×

10-Day Weather Forecast

No radar image for this location.
×

Almanac

Astronomy

Jan. 23, 2017 Rise Set
Actual Time
Civil Twilight
Nautical Twilight
Astronomical Twilight
Moon
Length of Visible Light
Length of Day
Tomorrow will be .
, % of the Moon is Illuminated

Today's Extremes

Country Highs Country Lows

Community

WunderPhotos

Upload Photos

1,962,540 photos uploaded!

WunderBlog® & News

Nearby

Air Quality

  Air Quality AQ Index Pollutant
Not available.

Snow Depth

Station Depth Elevation

Earthquake Activity

City Distance Mag. Time & Date
Minimum magnitude displayed is 2.5.

Coastal Water Temperatures

Place Temperature

Stations

Nearby Weather Stations

Station Location Temp. Windchill Dew Point Humidity Wind Precip. Elev Updated Type